sensor_id;sensor_type;location;lat;lon;timestamp;pressure;altitude;pressure_sealevel;temperature;humidity
58991;BME280;44781;53.444;14.476;2023-02-20T00:01:45;101883.06;;;2.79;66.17
58991;BME280;44781;53.444;14.476;2023-02-20T00:04:13;101893.65;;;2.80;66.19
58991;BME280;44781;53.444;14.476;2023-02-20T00:06:41;101897.44;;;2.83;66.11
58991;BME280;44781;53.444;14.476;2023-02-20T00:09:12;101897.19;;;2.86;66.27
58991;BME280;44781;53.444;14.476;2023-02-20T00:11:39;101888.44;;;2.87;66.35
58991;BME280;44781;53.444;14.476;2023-02-20T00:14:14;101885.98;;;2.87;66.40
58991;BME280;44781;53.444;14.476;2023-02-20T00:16:41;101878.35;;;2.85;66.33
58991;BME280;44781;53.444;14.476;2023-02-20T00:19:08;101879.10;;;2.83;66.41
58991;BME280;44781;53.444;14.476;2023-02-20T00:21:36;101881.25;;;2.82;66.52
58991;BME280;44781;53.444;14.476;2023-02-20T00:24:04;101875.17;;;2.80;66.73
58991;BME280;44781;53.444;14.476;2023-02-20T00:26:31;101867.88;;;2.79;66.66
58991;BME280;44781;53.444;14.476;2023-02-20T00:28:59;101862.90;;;2.75;66.76
58991;BME280;44781;53.444;14.476;2023-02-20T00:31:27;101862.29;;;2.72;66.84
58991;BME280;44781;53.444;14.476;2023-02-20T00:33:56;101865.63;;;2.71;66.87
58991;BME280;44781;53.444;14.476;2023-02-20T00:36:24;101866.14;;;2.72;66.95
58991;BME280;44781;53.444;14.476;2023-02-20T00:38:51;101861.71;;;2.74;67.05
58991;BME280;44781;53.444;14.476;2023-02-20T00:41:24;101863.58;;;2.76;67.23
58991;BME280;44781;53.444;14.476;2023-02-20T00:43:51;101858.79;;;2.79;67.39
58991;BME280;44781;53.444;14.476;2023-02-20T00:46:19;101855.64;;;2.80;67.45
58991;BME280;44781;53.444;14.476;2023-02-20T00:48:57;101842.17;;;2.81;67.42
58991;BME280;44781;53.444;14.476;2023-02-20T00:51:43;101835.89;;;2.81;67.49
58991;BME280;44781;53.444;14.476;2023-02-20T00:54:12;101830.48;;;2.81;67.53
58991;BME280;44781;53.444;14.476;2023-02-20T00:56:41;101825.10;;;2.80;67.67
58991;BME280;44781;53.444;14.476;2023-02-20T00:59:08;101828.64;;;2.78;67.79
58991;BME280;44781;53.444;14.476;2023-02-20T01:01:36;101821.54;;;2.75;67.80
58991;BME280;44781;53.444;14.476;2023-02-20T01:04:11;101819.35;;;2.72;67.92
58991;BME280;44781;53.444;14.476;2023-02-20T01:06:57;101820.98;;;2.70;68.12
58991;BME280;44781;53.444;14.476;2023-02-20T01:09:25;101822.70;;;2.71;68.23
58991;BME280;44781;53.444;14.476;2023-02-20T01:11:54;101820.15;;;2.75;68.46
58991;BME280;44781;53.444;14.476;2023-02-20T01:14:24;101817.92;;;2.80;68.54
58991;BME280;44781;53.444;14.476;2023-02-20T01:16:52;101813.27;;;2.85;68.57
58991;BME280;44781;53.444;14.476;2023-02-20T01:19:22;101805.45;;;2.90;68.72
58991;BME280;44781;53.444;14.476;2023-02-20T01:21:49;101791.75;;;2.92;68.81
58991;BME280;44781;53.444;14.476;2023-02-20T01:24:18;101779.00;;;2.93;68.79
58991;BME280;44781;53.444;14.476;2023-02-20T01:26:48;101772.88;;;2.93;68.94
58991;BME280;44781;53.444;14.476;2023-02-20T01:29:16;101770.76;;;2.94;69.06
58991;BME280;44781;53.444;14.476;2023-02-20T01:31:50;101766.73;;;2.94;69.16
58991;BME280;44781;53.444;14.476;2023-02-20T01:34:19;101764.63;;;2.95;69.21
58991;BME280;44781;53.444;14.476;2023-02-20T01:36:48;101760.79;;;2.95;69.34
58991;BME280;44781;53.444;14.476;2023-02-20T01:39:19;101760.11;;;2.94;69.38
58991;BME280;44781;53.444;14.476;2023-02-20T01:42:02;101760.78;;;2.96;69.53
58991;BME280;44781;53.444;14.476;2023-02-20T01:48:20;101759.92;;;3.07;69.88
58991;BME280;44781;53.444;14.476;2023-02-20T01:50:58;101757.16;;;3.12;69.99
58991;BME280;44781;53.444;14.476;2023-02-20T01:53:28;101750.98;;;3.14;70.03
58991;BME280;44781;53.444;14.476;2023-02-20T01:56:06;101742.69;;;3.18;70.14
58991;BME280;44781;53.444;14.476;2023-02-20T01:59:09;101732.15;;;3.20;70.25
58991;BME280;44781;53.444;14.476;2023-02-20T02:01:41;101726.53;;;3.21;70.43
58991;BME280;44781;53.444;14.476;2023-02-20T02:04:17;101724.94;;;3.22;70.34
58991;BME280;44781;53.444;14.476;2023-02-20T02:06:50;101726.73;;;3.20;70.45
58991;BME280;44781;53.444;14.476;2023-02-20T02:09:45;101726.56;;;3.19;70.57
58991;BME280;44781;53.444;14.476;2023-02-20T02:12:16;101716.45;;;3.19;70.54
58991;BME280;44781;53.444;14.476;2023-02-20T02:15:14;101709.05;;;3.21;70.71
58991;BME280;44781;53.444;14.476;2023-02-20T02:23:58;101699.10;;;3.38;71.07
58991;BME280;44781;53.444;14.476;2023-02-20T02:38:09;101672.80;;;3.42;71.38
58991;BME280;44781;53.444;14.476;2023-02-20T02:43:36;101664.38;;;3.43;71.51
58991;BME280;44781;53.444;14.476;2023-02-20T02:46:28;101656.45;;;3.44;71.57
58991;BME280;44781;53.444;14.476;2023-02-20T02:49:13;101656.34;;;3.48;71.67
58991;BME280;44781;53.444;14.476;2023-02-20T02:51:44;101646.77;;;3.52;71.80
58991;BME280;44781;53.444;14.476;2023-02-20T02:54:22;101643.30;;;3.57;71.88
58991;BME280;44781;53.444;14.476;2023-02-20T02:57:22;101636.73;;;3.60;71.78
58991;BME280;44781;53.444;14.476;2023-02-20T02:59:57;101629.27;;;3.64;71.88
58991;BME280;44781;53.444;14.476;2023-02-20T03:02:33;101630.95;;;3.66;71.95
58991;BME280;44781;53.444;14.476;2023-02-20T03:05:30;101626.05;;;3.66;71.91
58991;BME280;44781;53.444;14.476;2023-02-20T03:08:16;101623.23;;;3.67;71.93
58991;BME280;44781;53.444;14.476;2023-02-20T03:10:48;101624.92;;;3.69;71.93
58991;BME280;44781;53.444;14.476;2023-02-20T03:13:22;101622.82;;;3.68;71.99
58991;BME280;44781;53.444;14.476;2023-02-20T03:16:18;101614.23;;;3.70;72.02
58991;BME280;44781;53.444;14.476;2023-02-20T03:18:51;101609.39;;;3.73;72.19
58991;BME280;44781;53.444;14.476;2023-02-20T03:21:24;101597.89;;;3.77;72.16
58991;BME280;44781;53.444;14.476;2023-02-20T03:23:57;101588.77;;;3.83;72.31
58991;BME280;44781;53.444;14.476;2023-02-20T03:26:47;101564.42;;;3.90;72.32
58991;BME280;44781;53.444;14.476;2023-02-20T03:29:29;101557.59;;;3.95;72.36
58991;BME280;44781;53.444;14.476;2023-02-20T03:32:10;101541.78;;;3.92;72.34
58991;BME280;44781;53.444;14.476;2023-02-20T03:34:59;101548.23;;;4.03;72.39
58991;BME280;44781;53.444;14.476;2023-02-20T03:37:47;101547.00;;;4.03;72.36
58991;BME280;44781;53.444;14.476;2023-02-20T03:40:36;101551.33;;;4.04;72.39
58991;BME280;44781;53.444;14.476;2023-02-20T03:43:24;101555.23;;;4.02;72.42
58991;BME280;44781;53.444;14.476;2023-02-20T03:45:56;101557.86;;;4.02;72.52
58991;BME280;44781;53.444;14.476;2023-02-20T03:48:33;101546.34;;;4.02;72.62
58991;BME280;44781;53.444;14.476;2023-02-20T03:51:11;101540.48;;;4.05;72.80
58991;BME280;44781;53.444;14.476;2023-02-20T03:54:03;101545.20;;;4.09;72.83
58991;BME280;44781;53.444;14.476;2023-02-20T03:56:40;101543.98;;;4.13;72.92
58991;BME280;44781;53.444;14.476;2023-02-20T03:59:17;101540.11;;;4.19;73.10
58991;BME280;44781;53.444;14.476;2023-02-20T04:01:55;101540.73;;;4.21;73.14
58991;BME280;44781;53.444;14.476;2023-02-20T04:05:42;101535.52;;;4.25;73.14
58991;BME280;44781;53.444;14.476;2023-02-20T04:08:59;101531.31;;;4.25;73.23
58991;BME280;44781;53.444;14.476;2023-02-20T04:11:52;101533.08;;;4.25;73.41
58991;BME280;44781;53.444;14.476;2023-02-20T04:15:09;101527.04;;;4.23;73.59
58991;BME280;44781;53.444;14.476;2023-02-20T04:18:24;101514.95;;;4.23;73.70
58991;BME280;44781;53.444;14.476;2023-02-20T04:22:03;101514.15;;;4.26;74.10
58991;BME280;44781;53.444;14.476;2023-02-20T04:25:45;101509.84;;;4.28;74.33
58991;BME280;44781;53.444;14.476;2023-02-20T04:29:06;101497.78;;;4.33;74.65
58991;BME280;44781;53.444;14.476;2023-02-20T04:31:49;101491.89;;;4.36;74.79
58991;BME280;44781;53.444;14.476;2023-02-20T04:34:18;101488.49;;;4.38;74.88
58991;BME280;44781;53.444;14.476;2023-02-20T04:36:49;101476.98;;;4.37;74.98
58991;BME280;44781;53.444;14.476;2023-02-20T04:39:22;101471.59;;;4.36;75.11
58991;BME280;44781;53.444;14.476;2023-02-20T04:41:50;101464.31;;;4.39;75.20
58991;BME280;44781;53.444;14.476;2023-02-20T04:44:22;101462.91;;;4.44;75.37
58991;BME280;44781;53.444;14.476;2023-02-20T04:47:03;101461.83;;;4.49;75.55
58991;BME280;44781;53.444;14.476;2023-02-20T04:49:36;101463.20;;;4.54;75.61
58991;BME280;44781;53.444;14.476;2023-02-20T04:52:25;101461.18;;;4.56;75.62
58991;BME280;44781;53.444;14.476;2023-02-20T04:55:07;101449.66;;;4.56;75.73
58991;BME280;44781;53.444;14.476;2023-02-20T04:57:34;101444.93;;;4.56;75.77
58991;BME280;44781;53.444;14.476;2023-02-20T05:00:08;101442.16;;;4.55;75.89
58991;BME280;44781;53.444;14.476;2023-02-20T05:02:39;101433.16;;;4.53;75.96
58991;BME280;44781;53.444;14.476;2023-02-20T05:05:16;101428.33;;;4.50;76.08
58991;BME280;44781;53.444;14.476;2023-02-20T05:07:46;101421.00;;;4.50;76.18
58991;BME280;44781;53.444;14.476;2023-02-20T05:10:16;101418.83;;;4.52;76.35
58991;BME280;44781;53.444;14.476;2023-02-20T05:12:44;101420.29;;;4.55;76.49
58991;BME280;44781;53.444;14.476;2023-02-20T05:15:12;101410.02;;;4.58;76.62
58991;BME280;44781;53.444;14.476;2023-02-20T05:17:39;101402.08;;;4.59;76.62
58991;BME280;44781;53.444;14.476;2023-02-20T05:20:08;101396.45;;;4.60;76.65
58991;BME280;44781;53.444;14.476;2023-02-20T05:22:38;101396.95;;;4.61;76.79
58991;BME280;44781;53.444;14.476;2023-02-20T05:25:09;101391.16;;;4.61;76.84
58991;BME280;44781;53.444;14.476;2023-02-20T05:27:36;101381.05;;;4.60;76.82
58991;BME280;44781;53.444;14.476;2023-02-20T05:30:07;101369.02;;;4.59;76.88
58991;BME280;44781;53.444;14.476;2023-02-20T05:32:36;101362.64;;;4.61;77.01
58991;BME280;44781;53.444;14.476;2023-02-20T05:35:06;101356.92;;;4.64;77.12
58991;BME280;44781;53.444;14.476;2023-02-20T05:37:38;101355.70;;;4.68;77.21
58991;BME280;44781;53.444;14.476;2023-02-20T05:40:08;101348.73;;;4.71;77.36
58991;BME280;44781;53.444;14.476;2023-02-20T05:42:36;101342.70;;;4.73;77.37
58991;BME280;44781;53.444;14.476;2023-02-20T05:45:05;101336.20;;;4.74;77.34
58991;BME280;44781;53.444;14.476;2023-02-20T05:47:38;101325.47;;;4.71;77.35
58991;BME280;44781;53.444;14.476;2023-02-20T05:50:08;101315.50;;;4.66;77.38
58991;BME280;44781;53.444;14.476;2023-02-20T05:52:40;101313.52;;;4.68;77.55
58991;BME280;44781;53.444;14.476;2023-02-20T05:55:14;101308.40;;;4.69;77.67
58991;BME280;44781;53.444;14.476;2023-02-20T05:57:41;101304.81;;;4.71;77.79
58991;BME280;44781;53.444;14.476;2023-02-20T06:00:11;101300.89;;;4.73;77.96
58991;BME280;44781;53.444;14.476;2023-02-20T06:02:42;101285.58;;;4.75;78.01
58991;BME280;44781;53.444;14.476;2023-02-20T06:05:12;101284.26;;;4.77;78.10
58991;BME280;44781;53.444;14.476;2023-02-20T06:07:43;101276.73;;;4.77;78.26
58991;BME280;44781;53.444;14.476;2023-02-20T06:10:11;101273.64;;;4.76;78.32
58991;BME280;44781;53.444;14.476;2023-02-20T06:12:43;101265.67;;;4.74;78.43
58991;BME280;44781;53.444;14.476;2023-02-20T06:15:15;101257.95;;;4.74;78.49
58991;BME280;44781;53.444;14.476;2023-02-20T06:17:42;101260.45;;;4.77;78.70
58991;BME280;44781;53.444;14.476;2023-02-20T06:20:10;101244.23;;;4.80;78.82
58991;BME280;44781;53.444;14.476;2023-02-20T06:22:51;101239.67;;;4.84;78.96
58991;BME280;44781;53.444;14.476;2023-02-20T06:25:23;101238.07;;;4.85;79.09
58991;BME280;44781;53.444;14.476;2023-02-20T06:28:01;101244.57;;;4.84;79.17
58991;BME280;44781;53.444;14.476;2023-02-20T06:30:49;101237.14;;;4.82;79.23
58991;BME280;44781;53.444;14.476;2023-02-20T06:33:20;101239.50;;;4.80;79.42
58991;BME280;44781;53.444;14.476;2023-02-20T06:36:03;101247.77;;;4.79;79.62
58991;BME280;44781;53.444;14.476;2023-02-20T06:39:05;101247.30;;;4.81;79.82
58991;BME280;44781;53.444;14.476;2023-02-20T06:41:51;101252.95;;;4.84;80.08
58991;BME280;44781;53.444;14.476;2023-02-20T06:44:27;101238.11;;;4.88;80.28
58991;BME280;44781;53.444;14.476;2023-02-20T06:46:54;101244.20;;;4.92;80.46
58991;BME280;44781;53.444;14.476;2023-02-20T06:49:22;101248.40;;;4.96;80.55
58991;BME280;44781;53.444;14.476;2023-02-20T06:52:01;101242.39;;;4.98;80.64
58991;BME280;44781;53.444;14.476;2023-02-20T06:54:29;101239.70;;;4.99;80.88
58991;BME280;44781;53.444;14.476;2023-02-20T06:56:57;101228.76;;;5.01;80.90
58991;BME280;44781;53.444;14.476;2023-02-20T06:59:25;101231.81;;;5.03;80.93
58991;BME280;44781;53.444;14.476;2023-02-20T07:02:16;101236.14;;;5.08;81.15
58991;BME280;44781;53.444;14.476;2023-02-20T07:05:19;101229.46;;;5.12;81.40
58991;BME280;44781;53.444;14.476;2023-02-20T07:08:14;101224.27;;;5.15;81.58
58991;BME280;44781;53.444;14.476;2023-02-20T07:10:50;101209.93;;;5.14;81.80
58991;BME280;44781;53.444;14.476;2023-02-20T07:13:20;101202.22;;;5.14;81.91
58991;BME280;44781;53.444;14.476;2023-02-20T07:15:48;101204.95;;;5.16;81.93
58991;BME280;44781;53.444;14.476;2023-02-20T07:18:18;101207.53;;;5.21;82.07
58991;BME280;44781;53.444;14.476;2023-02-20T07:21:04;101188.67;;;5.27;82.18
58991;BME280;44781;53.444;14.476;2023-02-20T07:23:32;101168.88;;;5.35;82.35
58991;BME280;44781;53.444;14.476;2023-02-20T07:26:31;101158.39;;;5.41;82.51
58991;BME280;44781;53.444;14.476;2023-02-20T07:28:59;101171.16;;;5.45;82.39
58991;BME280;44781;53.444;14.476;2023-02-20T07:31:29;101157.34;;;5.45;82.32
58991;BME280;44781;53.444;14.476;2023-02-20T07:33:59;101152.23;;;5.45;82.34
58991;BME280;44781;53.444;14.476;2023-02-20T07:36:26;101142.60;;;5.49;82.38
58991;BME280;44781;53.444;14.476;2023-02-20T07:39:00;101142.85;;;5.55;82.50
58991;BME280;44781;53.444;14.476;2023-02-20T07:41:33;101129.67;;;5.59;82.58
58991;BME280;44781;53.444;14.476;2023-02-20T07:44:05;101122.20;;;5.65;82.71
58991;BME280;44781;53.444;14.476;2023-02-20T07:46:33;101114.70;;;5.71;82.76
58991;BME280;44781;53.444;14.476;2023-02-20T07:49:02;101093.02;;;5.77;82.74
58991;BME280;44781;53.444;14.476;2023-02-20T07:51:30;101081.51;;;5.79;82.71
58991;BME280;44781;53.444;14.476;2023-02-20T07:53:57;101086.92;;;5.83;82.55
58991;BME280;44781;53.444;14.476;2023-02-20T07:56:30;101085.10;;;5.88;82.44
58991;BME280;44781;53.444;14.476;2023-02-20T07:59:52;101075.50;;;5.94;82.58
58991;BME280;44781;53.444;14.476;2023-02-20T08:02:24;101068.48;;;5.98;82.43
58991;BME280;44781;53.444;14.476;2023-02-20T08:05:08;101063.70;;;6.02;82.53
58991;BME280;44781;53.444;14.476;2023-02-20T08:07:36;101062.87;;;6.05;82.52
58991;BME280;44781;53.444;14.476;2023-02-20T08:10:04;101053.67;;;6.06;82.44
58991;BME280;44781;53.444;14.476;2023-02-20T08:12:49;101026.20;;;6.08;82.39
58991;BME280;44781;53.444;14.476;2023-02-20T08:15:25;101015.64;;;6.12;82.36
58991;BME280;44781;53.444;14.476;2023-02-20T08:18:23;101011.35;;;6.17;82.31
58991;BME280;44781;53.444;14.476;2023-02-20T08:21:50;101016.86;;;6.22;82.28
58991;BME280;44781;53.444;14.476;2023-02-20T08:24:51;101014.58;;;6.28;82.25
58991;BME280;44781;53.444;14.476;2023-02-20T08:28:14;101007.10;;;6.34;82.33
58991;BME280;44781;53.444;14.476;2023-02-20T08:30:45;100992.89;;;6.37;82.25
58991;BME280;44781;53.444;14.476;2023-02-20T08:33:15;100987.40;;;6.38;82.00
58991;BME280;44781;53.444;14.476;2023-02-20T08:35:51;100981.93;;;6.39;81.97
58991;BME280;44781;53.444;14.476;2023-02-20T08:38:26;100973.61;;;6.40;81.64
58991;BME280;44781;53.444;14.476;2023-02-20T08:41:14;100969.08;;;6.43;81.77
58991;BME280;44781;53.444;14.476;2023-02-20T08:44:19;100967.22;;;6.48;81.67
58991;BME280;44781;53.444;14.476;2023-02-20T08:46:48;100963.48;;;6.52;81.75
58991;BME280;44781;53.444;14.476;2023-02-20T08:49:24;100958.98;;;6.57;81.78
58991;BME280;44781;53.444;14.476;2023-02-20T08:51:54;100958.66;;;6.60;81.54
58991;BME280;44781;53.444;14.476;2023-02-20T08:54:33;100949.96;;;6.61;81.49
58991;BME280;44781;53.444;14.476;2023-02-20T08:57:33;100949.75;;;6.62;81.35
58991;BME280;44781;53.444;14.476;2023-02-20T09:13:10;100945.44;;;6.76;81.35
58991;BME280;44781;53.444;14.476;2023-02-20T09:16:44;100918.23;;;6.79;81.22
58991;BME280;44781;53.444;14.476;2023-02-20T09:32:30;100877.58;;;6.95;80.71
58991;BME280;44781;53.444;14.476;2023-02-20T12:26:52;100780.41;;;8.33;80.65
58991;BME280;44781;53.444;14.476;2023-02-20T13:12:19;100768.70;;;9.10;80.83
58991;BME280;44781;53.444;14.476;2023-02-20T13:20:21;100772.74;;;9.02;80.56
58991;BME280;44781;53.444;14.476;2023-02-20T13:31:16;100778.69;;;8.82;80.47
58991;BME280;44781;53.444;14.476;2023-02-20T13:37:04;100772.51;;;8.80;80.69
58991;BME280;44781;53.444;14.476;2023-02-20T16:21:50;100689.64;;;8.91;84.76
58991;BME280;44781;53.444;14.476;2023-02-20T16:24:37;100691.55;;;8.89;84.87
58991;BME280;44781;53.444;14.476;2023-02-20T16:27:07;100701.07;;;8.89;85.00
58991;BME280;44781;53.444;14.476;2023-02-20T16:29:35;100695.30;;;8.91;85.16
58991;BME280;44781;53.444;14.476;2023-02-20T17:52:04;100746.55;;;8.99;89.45
58991;BME280;44781;53.444;14.476;2023-02-20T17:55:16;100742.31;;;8.96;89.51
58991;BME280;44781;53.444;14.476;2023-02-20T18:09:06;100755.42;;;9.03;90.20
58991;BME280;44781;53.444;14.476;2023-02-20T18:11:44;100756.63;;;9.03;90.11
58991;BME280;44781;53.444;14.476;2023-02-20T20:00:45;100757.92;;;9.23;91.29
58991;BME280;44781;53.444;14.476;2023-02-20T20:03:12;100759.81;;;9.24;91.25
58991;BME280;44781;53.444;14.476;2023-02-20T20:05:42;100755.45;;;9.23;91.31
58991;BME280;44781;53.444;14.476;2023-02-20T21:15:47;100739.64;;;9.12;91.91
